createdAt,value
2019-02-22T00:00:49.511Z,33.5
2019-02-22T00:02:50.134Z,33.3
2019-02-22T00:04:49.730Z,37.0
2019-02-22T00:06:49.869Z,37.0
2019-02-22T00:08:49.928Z,33.7
2019-02-22T00:10:50.021Z,34.9
2019-02-22T00:12:50.062Z,37.7
2019-02-22T00:14:50.126Z,37.7
2019-02-22T00:16:50.265Z,38.0
2019-02-22T00:18:50.229Z,36.5
2019-02-22T00:20:50.384Z,34.1
2019-02-22T00:22:50.416Z,36.3
2019-02-22T00:24:49.473Z,36.4
2019-02-22T00:26:49.665Z,36.4
2019-02-22T00:28:49.719Z,34.6
2019-02-22T00:30:49.673Z,34.4
2019-02-22T00:32:49.715Z,33.2
2019-02-22T00:34:50.217Z,33.2
2019-02-22T00:36:49.662Z,34.4
2019-02-22T00:38:49.868Z,33.7
2019-02-22T00:40:49.925Z,33.3
2019-02-22T00:42:50.401Z,36.4
2019-02-22T00:44:49.573Z,36.4
2019-02-22T00:46:49.744Z,34.7
2019-02-22T00:48:49.757Z,38.3
2019-02-22T00:50:49.726Z,35.3
2019-02-22T00:52:49.772Z,35.3
2019-02-22T00:54:49.806Z,33.4
2019-02-22T00:56:49.977Z,35.4
2019-02-22T00:58:50.101Z,33.3
2019-02-22T01:00:50.180Z,35.0
2019-02-22T01:02:50.301Z,36.0
2019-02-22T01:04:49.753Z,36.0
2019-02-22T01:06:49.861Z,34.9
2019-02-22T01:08:49.918Z,39.4
2019-02-22T01:10:49.945Z,34.3
2019-02-22T01:12:50.076Z,34.3
2019-02-22T01:14:50.107Z,36.7
2019-02-22T01:16:50.319Z,37.1
2019-02-22T01:18:50.339Z,34.8
2019-02-22T01:20:54.205Z,36.5
2019-02-22T01:22:49.873Z,36.5
2019-02-22T01:24:49.850Z,36.6
2019-02-22T01:26:50.075Z,39.6
2019-02-22T01:28:50.095Z,38.3
2019-02-22T01:30:50.083Z,36.7
2019-02-22T01:32:50.079Z,36.7
2019-02-22T01:34:50.449Z,38.0
2019-02-22T01:36:49.721Z,37.8
2019-02-22T01:38:49.819Z,36.0
2019-02-22T01:40:49.821Z,36.0
2019-02-22T01:42:49.839Z,40.7
2019-02-22T01:44:49.960Z,38.9
2019-02-22T01:46:49.985Z,38.7
2019-02-22T01:48:50.175Z,40.9
2019-02-22T01:50:50.173Z,38.5
2019-02-22T01:52:50.176Z,38.5
2019-02-22T01:54:50.177Z,42.1
2019-02-22T01:56:49.490Z,40.3
2019-02-22T01:58:49.547Z,39.1
2019-02-22T02:00:49.579Z,38.5
2019-02-22T02:02:49.713Z,38.5
2019-02-22T02:04:50.129Z,39.4
2019-02-22T02:06:50.315Z,41.0
2019-02-22T02:08:50.365Z,41.0
2019-02-22T02:10:54.012Z,42.1
2019-02-22T02:12:49.623Z,39.8
2019-02-22T02:14:49.733Z,40.4
2019-02-22T02:16:50.031Z,43.8
2019-02-22T02:18:50.125Z,43.8
2019-02-22T02:20:50.331Z,41.5
2019-02-22T02:22:49.807Z,42.0
2019-02-22T02:24:49.984Z,41.7
2019-02-22T02:26:50.228Z,42.2
2019-02-22T02:28:51.644Z,42.2
2019-02-22T02:30:49.896Z,46.0
2019-02-22T02:32:49.889Z,44.8
2019-02-22T02:34:50.281Z,43.8
2019-02-22T02:36:49.598Z,44.5
2019-02-22T02:38:49.784Z,44.9
2019-02-22T02:40:49.811Z,44.9
2019-02-22T02:42:49.844Z,46.7
2019-02-22T02:44:49.970Z,49.0
2019-02-22T02:46:50.148Z,51.4
2019-02-22T02:48:50.239Z,51.4
2019-02-22T02:50:50.193Z,48.2
2019-02-22T02:52:50.312Z,50.1
2019-02-22T02:54:50.353Z,47.9
2019-02-22T02:56:49.663Z,46.7
2019-02-22T02:58:49.645Z,45.5
2019-02-22T03:00:49.646Z,45.5
2019-02-22T03:02:49.848Z,47.6
2019-02-22T03:04:50.226Z,48.3
2019-02-22T03:06:49.469Z,48.0
2019-02-22T03:08:49.670Z,49.8
2019-02-22T03:10:49.768Z,49.8
2019-02-22T03:12:50.054Z,49.5
2019-02-22T03:14:50.061Z,49.4
2019-02-22T03:16:50.332Z,48.2
2019-02-22T03:18:50.413Z,52.2
2019-02-22T03:20:50.399Z,52.2
2019-02-22T03:22:49.464Z,48.0
2019-02-22T03:24:49.501Z,48.4
2019-02-22T03:26:49.504Z,51.3
2019-02-22T03:28:49.608Z,51.3
2019-02-22T03:30:49.718Z,48.9
2019-02-22T03:32:49.850Z,50.9
2019-02-22T03:34:49.468Z,50.9
2019-02-22T03:36:49.834Z,50.1
2019-02-22T03:38:49.897Z,50.1
2019-02-22T03:40:49.855Z,47.4
2019-02-22T03:42:49.839Z,47.8
2019-02-22T03:44:49.880Z,50.5
2019-02-22T03:46:50.175Z,47.4
2019-02-22T03:48:50.218Z,47.4
2019-02-22T03:50:50.244Z,49.5
2019-02-22T03:52:50.294Z,50.1
2019-02-22T03:54:50.407Z,44.9
2019-02-22T03:56:49.643Z,49.6
2019-02-22T03:58:49.650Z,49.6
2019-02-22T04:00:49.759Z,49.6
2019-02-22T04:02:49.856Z,46.9
2019-02-22T04:04:50.328Z,48.3
2019-02-22T04:06:49.548Z,48.3
2019-02-22T04:08:49.619Z,47.3
2019-02-22T04:10:49.708Z,47.0
2019-02-22T04:12:49.802Z,47.1
2019-02-22T04:14:49.863Z,46.3
2019-02-22T04:16:50.088Z,46.3
2019-02-22T04:18:50.113Z,47.7
2019-02-22T04:20:50.213Z,45.0
2019-02-22T04:22:50.263Z,48.7
2019-02-22T04:24:50.329Z,48.7
2019-02-22T04:26:49.576Z,46.3
2019-02-22T04:28:49.600Z,48.3
2019-02-22T04:30:49.651Z,44.4
2019-02-22T04:32:49.749Z,48.3
2019-02-22T04:34:50.103Z,46.2
2019-02-22T04:36:50.226Z,46.2
2019-02-22T04:38:50.189Z,48.0
2019-02-22T04:40:50.279Z,49.6
2019-02-22T04:42:50.315Z,46.6
2019-02-22T04:44:49.442Z,48.2
2019-02-22T04:46:49.602Z,48.2
2019-02-22T04:48:49.800Z,48.1
2019-02-22T04:50:49.805Z,44.8
2019-02-22T04:52:49.817Z,44.8
2019-02-22T04:54:49.815Z,47.5
2019-02-22T04:56:50.094Z,48.4
2019-02-22T04:58:50.116Z,48.0
2019-02-22T05:00:50.234Z,46.2
2019-02-22T05:02:50.151Z,47.2
2019-02-22T05:04:49.588Z,47.2
2019-02-22T05:06:49.717Z,53.5
2019-02-22T05:08:49.791Z,46.7
2019-02-22T05:10:49.729Z,49.2
2019-02-22T05:12:49.795Z,49.2
2019-02-22T05:14:49.790Z,51.0
2019-02-22T05:16:50.056Z,47.4
2019-02-22T05:18:50.215Z,48.6
2019-02-22T05:20:50.213Z,44.6
2019-02-22T05:22:50.217Z,44.6
2019-02-22T05:24:50.307Z,45.9
2019-02-22T05:26:50.101Z,46.4
2019-02-22T05:28:50.218Z,48.8
2019-02-22T05:30:50.187Z,51.1
2019-02-22T05:32:50.196Z,48.5
2019-02-22T05:34:49.674Z,48.5
2019-02-22T05:36:49.783Z,47.8
2019-02-22T05:38:49.816Z,44.8
2019-02-22T05:40:49.808Z,48.4
2019-02-22T05:42:49.891Z,48.4
2019-02-22T05:44:49.975Z,47.0
2019-02-22T05:46:59.839Z,46.0
2019-02-22T05:48:49.979Z,47.5
2019-02-22T05:50:50.015Z,45.4
2019-02-22T05:52:50.029Z,45.4
2019-02-22T05:54:50.111Z,44.7
2019-02-22T05:56:50.224Z,47.0
2019-02-22T05:58:50.335Z,44.4
2019-02-22T06:00:50.322Z,43.4
2019-02-22T06:02:50.385Z,43.4
2019-02-22T06:04:49.907Z,46.8
2019-02-22T06:06:50.063Z,45.4
2019-02-22T06:08:50.180Z,45.2
2019-02-22T06:10:50.195Z,45.2
2019-02-22T06:12:50.171Z,47.8
2019-02-22T06:14:50.222Z,42.5
2019-02-22T06:16:50.736Z,44.9
2019-02-22T06:18:49.772Z,44.9
2019-02-22T06:20:49.818Z,45.3
2019-02-22T06:22:49.858Z,45.3
2019-02-22T06:24:49.999Z,43.2
2019-02-22T06:26:50.167Z,44.8
2019-02-22T06:28:50.220Z,45.0
2019-02-22T06:30:50.141Z,45.0
2019-02-22T06:32:50.351Z,45.2
2019-02-22T06:34:49.824Z,46.4
2019-02-22T06:37:00.661Z,46.0
2019-02-22T06:38:49.745Z,43.1
2019-02-22T06:40:49.806Z,44.4
2019-02-22T06:42:50.003Z,44.4
2019-02-22T06:44:50.185Z,44.6
2019-02-22T06:46:50.338Z,40.6
2019-02-22T06:48:50.372Z,40.9
2019-02-22T06:50:49.431Z,40.9
2019-02-22T06:52:50.415Z,40.9
2019-02-22T06:54:49.519Z,39.7
2019-02-22T06:56:49.719Z,41.0
2019-02-22T06:58:49.768Z,41.0
2019-02-22T07:00:49.840Z,40.7
2019-02-22T07:02:49.870Z,40.5
2019-02-22T07:04:50.267Z,43.5
2019-02-22T07:06:50.400Z,43.3
2019-02-22T07:08:49.456Z,41.5
2019-02-22T07:10:49.624Z,41.5
2019-02-22T07:12:56.235Z,38.6
2019-02-22T07:14:49.457Z,38.6
2019-02-22T07:16:49.641Z,42.5
2019-02-22T07:18:49.955Z,40.6
2019-02-22T07:20:50.018Z,40.6
2019-02-22T07:22:50.038Z,38.8
2019-02-22T07:24:50.092Z,42.4
2019-02-22T07:26:50.201Z,39.2
2019-02-22T07:28:50.291Z,39.2
2019-02-22T07:30:50.284Z,39.2
2019-02-22T07:32:50.298Z,39.1
2019-02-22T07:34:50.018Z,41.6
2019-02-22T07:36:50.188Z,38.9
2019-02-22T07:38:50.241Z,38.9
2019-02-22T07:40:50.260Z,40.1
2019-02-22T07:42:50.225Z,36.9
2019-02-22T07:44:50.319Z,37.6
2019-02-22T07:46:49.596Z,37.6
2019-02-22T07:48:49.820Z,37.2
2019-02-22T07:50:57.236Z,36.4
2019-02-22T07:52:49.487Z,38.5
2019-02-22T07:54:49.477Z,38.5
2019-02-22T07:56:49.623Z,36.7
2019-02-22T07:58:49.761Z,36.7
2019-02-22T08:00:49.844Z,37.1
2019-02-22T08:02:49.842Z,36.2
2019-02-22T08:04:50.247Z,36.2
2019-02-22T08:06:49.486Z,36.6
2019-02-22T08:08:49.760Z,36.6
2019-02-22T08:10:49.866Z,38.4
2019-02-22T08:12:49.861Z,34.4
2019-02-22T08:14:49.929Z,35.0
2019-02-22T08:16:50.017Z,35.0
2019-02-22T08:19:00.583Z,34.4
2019-02-22T08:20:50.065Z,32.7
2019-02-22T08:22:50.032Z,30.2
2019-02-22T08:24:50.075Z,29.5
2019-02-22T08:26:50.654Z,29.8
2019-02-22T08:28:49.659Z,29.8
2019-02-22T08:30:49.646Z,27.7
2019-02-22T08:32:49.716Z,28.7
2019-02-22T08:34:50.077Z,28.7
2019-02-22T08:36:50.207Z,27.9
2019-02-22T08:38:50.162Z,27.9
2019-02-22T08:40:50.117Z,26.3
2019-02-22T08:42:50.249Z,26.3
2019-02-22T08:44:50.338Z,25.2
2019-02-22T08:46:49.514Z,25.2
2019-02-22T08:48:49.529Z,22.8
2019-02-22T08:50:49.583Z,22.5
2019-02-22T08:52:49.634Z,24.0
2019-02-22T08:54:49.782Z,24.0
2019-02-22T08:56:49.956Z,21.4
2019-02-22T08:58:49.872Z,22.2
2019-02-22T09:00:49.933Z,20.3
2019-02-22T09:02:49.952Z,20.1
2019-02-22T09:04:49.638Z,20.1
2019-02-22T09:06:52.282Z,17.5
2019-02-22T09:08:49.514Z,17.6
2019-02-22T09:11:00.015Z,16.5
2019-02-22T09:12:49.922Z,16.5
2019-02-22T09:14:49.959Z,16.7
2019-02-22T09:16:50.041Z,15.5
2019-02-22T09:18:50.187Z,16.2
2019-02-22T09:20:50.185Z,16.3
2019-02-22T09:22:50.264Z,13.3
2019-02-22T09:24:50.295Z,13.3
2019-02-22T09:26:50.407Z,13.7
2019-02-22T09:28:49.479Z,14.1
2019-02-22T09:30:49.474Z,12.9
2019-02-22T09:32:49.843Z,12.6
2019-02-22T09:34:50.333Z,12.6
2019-02-22T09:36:49.533Z,12.1
2019-02-22T09:38:49.522Z,10.9
2019-02-22T09:40:49.548Z,11.3
2019-02-22T09:42:49.718Z,10.8
2019-02-22T09:44:49.783Z,10.8
2019-02-22T09:46:49.980Z,10.9
2019-02-22T09:48:50.042Z,9.3
2019-02-22T09:50:50.117Z,11.0
2019-02-22T09:52:50.200Z,9.3
2019-02-22T09:54:50.237Z,9.3
2019-02-22T09:56:50.976Z,9.5
2019-02-22T09:58:50.255Z,10.4
2019-02-22T10:00:50.302Z,8.8
2019-02-22T10:02:49.444Z,9.6
2019-02-22T10:04:54.764Z,9.6
2019-02-22T10:06:49.738Z,8.9
2019-02-22T10:08:49.749Z,8.8
2019-02-22T10:10:49.859Z,8.7
2019-02-22T10:12:49.910Z,8.7
2019-02-22T10:14:49.930Z,9.2
2019-02-22T10:16:49.988Z,8.7
2019-02-22T10:18:49.934Z,10.0
2019-02-22T10:20:49.991Z,8.9
2019-02-22T10:22:50.016Z,8.9
2019-02-22T10:24:49.996Z,9.2
2019-02-22T10:26:50.049Z,11.8
2019-02-22T10:28:50.151Z,11.8
2019-02-22T10:30:50.159Z,9.9
2019-02-22T10:32:50.189Z,9.9
2019-02-22T10:34:49.560Z,10.2
2019-02-22T10:36:49.695Z,9.8
2019-02-22T10:38:49.725Z,9.8
2019-02-22T10:40:49.781Z,8.0
2019-02-22T10:42:49.821Z,8.0
2019-02-22T10:44:49.802Z,7.6
2019-02-22T10:46:49.950Z,10.0
2019-02-22T10:48:50.008Z,8.9
2019-02-22T10:50:50.383Z,8.9
2019-02-22T10:53:01.402Z,7.3
2019-02-22T10:54:50.422Z,9.7
2019-02-22T10:56:49.675Z,8.6
2019-02-22T10:58:49.796Z,8.2
2019-02-22T11:00:49.887Z,8.2
2019-02-22T11:02:49.883Z,8.0
2019-02-22T11:04:50.432Z,8.3
2019-02-22T11:06:49.764Z,7.4
2019-02-22T11:08:49.726Z,6.6
2019-02-22T11:10:49.720Z,6.6
2019-02-22T11:12:49.750Z,6.6
2019-02-22T11:14:49.743Z,6.3
2019-02-22T11:16:49.832Z,6.4
2019-02-22T11:18:49.854Z,8.2
2019-02-22T11:20:49.798Z,8.2
2019-02-22T11:22:49.757Z,6.2
2019-02-22T11:24:49.867Z,6.7
2019-02-22T11:26:50.192Z,10.0
2019-02-22T11:28:50.247Z,10.0
2019-02-22T11:30:50.236Z,5.9
2019-02-22T11:32:50.259Z,6.1
2019-02-22T11:34:49.755Z,7.7
2019-02-22T11:36:49.862Z,7.7
2019-02-22T11:38:49.991Z,5.9
2019-02-22T11:40:49.999Z,7.4
2019-02-22T11:42:49.990Z,6.0
2019-02-22T11:44:50.089Z,8.1
2019-02-22T11:46:50.194Z,6.0
2019-02-22T11:48:50.245Z,6.0
2019-02-22T11:50:50.348Z,5.8
2019-02-22T11:52:49.599Z,6.4
2019-02-22T11:54:49.771Z,5.8
2019-02-22T11:56:50.203Z,5.5
2019-02-22T11:58:50.305Z,5.5
2019-02-22T12:00:49.545Z,5.7
2019-02-22T12:02:49.713Z,5.8
2019-02-22T12:04:50.347Z,5.6
2019-02-22T12:06:49.839Z,5.6
2019-02-22T12:08:50.014Z,5.3
2019-02-22T12:10:50.243Z,5.2
2019-02-22T12:12:49.460Z,4.9
2019-02-22T12:14:52.024Z,4.8
2019-02-22T12:16:49.770Z,4.8
2019-02-22T12:18:50.003Z,5.0
2019-02-22T12:20:50.013Z,5.1
2019-02-22T12:22:50.003Z,6.0
2019-02-22T12:24:50.011Z,6.0
2019-02-22T12:26:50.248Z,5.2
2019-02-22T12:28:50.204Z,5.1
2019-02-22T12:30:50.192Z,7.2
2019-02-22T12:32:50.119Z,4.8
2019-02-22T12:34:49.458Z,5.5
2019-02-22T12:36:49.527Z,5.5
2019-02-22T12:38:49.664Z,5.6
2019-02-22T12:40:49.597Z,5.4
2019-02-22T12:42:49.691Z,6.3
2019-02-22T12:44:49.697Z,6.4
2019-02-22T12:46:49.908Z,6.4
2019-02-22T12:48:49.938Z,6.4
2019-02-22T12:50:49.890Z,5.3
2019-02-22T12:52:49.972Z,5.7
2019-02-22T12:54:50.102Z,5.6
2019-02-22T12:56:57.997Z,5.6
2019-02-22T12:58:49.613Z,6.2
2019-02-22T13:00:49.657Z,5.6
2019-02-22T13:03:01.179Z,4.9
2019-02-22T13:04:50.003Z,5.3
2019-02-22T13:06:50.136Z,5.3
2019-02-22T13:08:50.157Z,5.3
2019-02-22T13:10:49.468Z,4.9
2019-02-22T13:12:49.456Z,6.1
2019-02-22T13:14:49.558Z,6.1
2019-02-22T13:16:49.872Z,7.1
2019-02-22T13:18:50.001Z,4.5
2019-02-22T13:20:50.020Z,4.8
2019-02-22T13:22:49.923Z,4.3
2019-02-22T13:24:49.933Z,4.3
2019-02-22T13:26:50.068Z,4.3
2019-02-22T13:28:50.013Z,5.0
2019-02-22T13:30:49.928Z,4.3
2019-02-22T13:32:49.966Z,3.8
2019-02-22T13:34:50.254Z,3.8
2019-02-22T13:36:50.342Z,5.2
2019-02-22T13:38:49.597Z,3.6
2019-02-22T13:40:49.930Z,3.4
2019-02-22T13:42:50.218Z,4.6
2019-02-22T13:44:50.368Z,4.6
2019-02-22T13:46:49.618Z,5.1
2019-02-22T13:48:49.763Z,3.8
2019-02-22T13:50:49.570Z,3.7
2019-02-22T13:52:49.772Z,3.7
2019-02-22T13:54:49.743Z,4.9
2019-02-22T13:56:49.837Z,3.5
2019-02-22T13:58:49.889Z,3.8
2019-02-22T14:00:49.997Z,3.8
2019-02-22T14:02:50.109Z,3.8
2019-02-22T14:04:49.484Z,4.1
2019-02-22T14:06:49.643Z,4.0
2019-02-22T14:08:49.680Z,3.8
2019-02-22T14:10:49.726Z,3.8
2019-02-22T14:12:49.781Z,4.2
2019-02-22T14:14:49.793Z,3.5
2019-02-22T14:16:50.039Z,4.1
2019-02-22T14:18:50.064Z,3.6
2019-02-22T14:20:50.084Z,3.9
2019-02-22T14:22:50.037Z,3.9
2019-02-22T14:24:50.139Z,4.5
2019-02-22T14:26:50.293Z,4.3
2019-02-22T14:28:50.275Z,4.3
2019-02-22T14:30:50.203Z,4.2
2019-02-22T14:32:50.287Z,4.2
2019-02-22T14:34:49.761Z,3.9
2019-02-22T14:36:49.983Z,3.7
2019-02-22T14:38:49.929Z,5.4
2019-02-22T14:40:49.532Z,4.0
2019-02-22T14:42:49.672Z,4.0
2019-02-22T14:44:49.656Z,3.6
2019-02-22T14:46:49.776Z,5.8
2019-02-22T14:48:49.770Z,3.6
2019-02-22T14:50:49.764Z,3.6
2019-02-22T14:52:49.799Z,3.6
2019-02-22T14:54:49.829Z,3.7
2019-02-22T14:56:49.950Z,3.8
2019-02-22T14:58:49.946Z,3.4
2019-02-22T15:00:49.995Z,3.4
2019-02-22T15:02:50.044Z,4.3
2019-02-22T15:04:49.552Z,4.3
2019-02-22T15:06:49.774Z,4.7
2019-02-22T15:08:49.795Z,4.2
2019-02-22T15:10:49.829Z,4.2
2019-02-22T15:12:49.983Z,4.1
2019-02-22T15:14:49.950Z,4.2
2019-02-22T15:16:50.109Z,5.5
2019-02-22T15:18:49.761Z,5.5
2019-02-22T15:20:49.726Z,5.2
2019-02-22T15:22:49.696Z,4.9
2019-02-22T15:24:49.685Z,4.6
2019-02-22T15:26:49.862Z,4.6
2019-02-22T15:28:49.883Z,5.5
2019-02-22T15:30:50.010Z,5.5
2019-02-22T15:32:50.085Z,4.6
2019-02-22T15:34:50.117Z,5.2
2019-02-22T15:36:50.630Z,5.2
2019-02-22T15:38:49.715Z,5.4
2019-02-22T15:40:49.947Z,5.4
2019-02-22T15:42:50.045Z,4.8
2019-02-22T15:44:50.139Z,5.2
2019-02-22T15:46:49.450Z,5.2
2019-02-22T15:48:49.609Z,5.3
2019-02-22T15:50:49.761Z,5.1
2019-02-22T15:52:50.148Z,5.3
2019-02-22T15:54:50.133Z,5.7
2019-02-22T15:56:50.282Z,5.6
2019-02-22T15:58:50.420Z,5.6
2019-02-22T16:00:49.728Z,6.0
2019-02-22T16:02:49.726Z,6.3
2019-02-22T16:04:49.997Z,6.2
2019-02-22T16:06:50.169Z,6.2
2019-02-22T16:08:50.222Z,6.2
2019-02-22T16:10:50.328Z,6.4
2019-02-22T16:12:50.336Z,5.7
2019-02-22T16:14:50.292Z,5.9
2019-02-22T16:16:50.441Z,5.3
2019-02-22T16:18:49.535Z,5.3
2019-02-22T16:20:49.464Z,4.8
2019-02-22T16:22:51.270Z,5.1
2019-02-22T16:24:49.754Z,5.1
2019-02-22T16:26:49.862Z,4.8
2019-02-22T16:28:49.850Z,4.8
2019-02-22T16:30:49.855Z,4.9
2019-02-22T16:32:49.834Z,4.9
2019-02-22T16:34:50.252Z,4.7
2019-02-22T16:36:49.552Z,4.7
2019-02-22T16:38:49.605Z,4.3
2019-02-22T16:40:49.630Z,5.8
2019-02-22T16:42:49.766Z,4.5
2019-02-22T16:44:49.768Z,4.0
2019-02-22T16:46:49.929Z,4.0
2019-02-22T16:48:50.012Z,5.0
2019-02-22T16:50:50.003Z,5.0
2019-02-22T16:52:50.015Z,4.8
2019-02-22T16:54:50.143Z,4.8
2019-02-22T16:56:50.389Z,5.3
2019-02-22T16:58:50.431Z,4.0
2019-02-22T17:00:49.553Z,4.2
2019-02-22T17:02:49.719Z,5.0
2019-02-22T17:04:50.138Z,4.9
2019-02-22T17:06:50.310Z,4.9
2019-02-22T17:08:50.347Z,4.9
2019-02-22T17:10:49.469Z,4.5
2019-02-22T17:12:49.634Z,4.4
2019-02-22T17:14:49.649Z,4.4
2019-02-22T17:16:49.835Z,4.4
2019-02-22T17:18:49.851Z,4.6
2019-02-22T17:20:49.907Z,4.1
2019-02-22T17:22:50.023Z,4.1
2019-02-22T17:24:50.035Z,4.2
2019-02-22T17:26:50.193Z,4.2
2019-02-22T17:28:50.177Z,3.9
2019-02-22T17:30:50.289Z,4.1
2019-02-22T17:32:50.272Z,3.9
2019-02-22T17:34:49.614Z,3.9
2019-02-22T17:36:49.873Z,4.5
2019-02-22T17:38:49.919Z,4.9
2019-02-22T17:40:49.951Z,5.9
2019-02-22T17:42:49.948Z,5.4
2019-02-22T17:44:49.986Z,5.4
2019-02-22T17:46:57.508Z,4.7
2019-02-22T17:48:50.111Z,6.4
2019-02-22T17:50:50.148Z,5.1
2019-02-22T17:52:50.216Z,5.7
2019-02-22T17:54:50.231Z,5.7
2019-02-22T17:56:49.522Z,5.1
2019-02-22T17:58:49.479Z,5.6
2019-02-22T18:00:49.556Z,6.3
2019-02-22T18:02:49.599Z,6.3
2019-02-22T18:04:50.091Z,5.9
2019-02-22T18:06:50.294Z,6.4
2019-02-22T18:08:50.282Z,7.0
2019-02-22T18:10:50.437Z,6.9
2019-02-22T18:12:49.466Z,6.9
2019-02-22T18:14:49.602Z,7.7
2019-02-22T18:16:49.821Z,7.4
2019-02-22T18:18:49.800Z,8.1
2019-02-22T18:20:50.154Z,8.9
2019-02-22T18:22:50.129Z,8.9
2019-02-22T18:24:50.129Z,8.1
2019-02-22T18:26:50.337Z,9.0
2019-02-22T18:28:50.356Z,9.5
2019-02-22T18:30:50.368Z,9.6
2019-02-22T18:32:49.474Z,9.6
2019-02-22T18:34:49.931Z,9.9
2019-02-22T18:36:50.026Z,13.6
2019-02-22T18:38:50.102Z,11.5
2019-02-22T18:40:50.098Z,11.5
2019-02-22T18:42:50.198Z,11.5
2019-02-22T18:44:50.160Z,11.7
2019-02-22T18:46:50.404Z,11.9
2019-02-22T18:48:49.478Z,11.5
2019-02-22T18:50:49.527Z,11.5
2019-02-22T18:52:49.515Z,11.2
2019-02-22T18:54:49.591Z,10.4
2019-02-22T18:56:49.742Z,11.1
2019-02-22T18:58:49.851Z,11.1
2019-02-22T19:00:49.865Z,10.4
2019-02-22T19:02:49.874Z,10.7
2019-02-22T19:04:50.297Z,10.5
2019-02-22T19:06:49.520Z,12.3
2019-02-22T19:08:49.587Z,12.3
2019-02-22T19:10:49.597Z,12.3
2019-02-22T19:12:49.619Z,9.8
2019-02-22T19:14:49.707Z,10.9
2019-02-22T19:16:49.953Z,10.9
2019-02-22T19:18:49.992Z,10.9
2019-02-22T19:20:49.985Z,10.9
2019-02-22T19:22:50.002Z,13.2
2019-02-22T19:24:52.286Z,11.1
2019-02-22T19:26:49.589Z,12.7
2019-02-22T19:28:49.601Z,12.7
2019-02-22T19:30:49.642Z,12.2
2019-02-22T19:32:49.741Z,12.7
2019-02-22T19:34:50.299Z,12.2
2019-02-22T19:36:50.447Z,11.4
2019-02-22T19:38:49.591Z,11.4
2019-02-22T19:40:49.651Z,12.6
2019-02-22T19:42:49.599Z,12.8
2019-02-22T19:44:49.628Z,14.3
2019-02-22T19:46:49.908Z,13.7
2019-02-22T19:48:49.891Z,13.3
2019-02-22T19:50:50.012Z,13.3
2019-02-22T19:52:49.954Z,12.9
2019-02-22T19:54:50.105Z,12.4
2019-02-22T19:56:50.278Z,12.4
2019-02-22T19:58:50.325Z,12.3
2019-02-22T20:00:50.308Z,12.0
2019-02-22T20:02:50.285Z,12.2
2019-02-22T20:04:49.796Z,10.7
2019-02-22T20:06:49.925Z,13.5
2019-02-22T20:08:49.921Z,13.5
2019-02-22T20:10:49.883Z,11.2
2019-02-22T20:12:50.054Z,12.5
2019-02-22T20:14:50.064Z,12.5
2019-02-22T20:16:50.364Z,12.8
2019-02-22T20:18:50.310Z,12.8
2019-02-22T20:20:50.437Z,13.7
2019-02-22T20:22:49.467Z,11.9
2019-02-22T20:24:49.577Z,12.2
2019-02-22T20:26:49.787Z,12.9
2019-02-22T20:28:49.819Z,12.9
2019-02-22T20:30:49.900Z,12.7
2019-02-22T20:32:49.967Z,13.1
2019-02-22T20:34:50.307Z,12.4
2019-02-22T20:36:49.474Z,12.4
2019-02-22T20:38:49.563Z,12.4
2019-02-22T20:40:49.709Z,12.0
2019-02-22T20:42:49.730Z,12.6
2019-02-22T20:44:49.734Z,12.7
2019-02-22T20:46:49.798Z,12.7
2019-02-22T20:49:00.269Z,11.5
2019-02-22T20:50:49.889Z,11.8
2019-02-22T20:52:49.965Z,12.0
2019-02-22T20:54:49.942Z,12.5
2019-02-22T20:56:50.085Z,12.5
2019-02-22T20:58:50.108Z,12.0
2019-02-22T21:00:50.131Z,12.3
2019-02-22T21:02:50.096Z,12.3
2019-02-22T21:04:49.444Z,12.3
2019-02-22T21:06:49.638Z,11.7
2019-02-22T21:08:49.741Z,12.8
2019-02-22T21:10:49.734Z,12.2
2019-02-22T21:12:49.762Z,11.9
2019-02-22T21:14:49.779Z,11.9
2019-02-22T21:16:49.925Z,11.9
2019-02-22T21:18:49.961Z,12.6
2019-02-22T21:20:49.957Z,12.8
2019-02-22T21:22:49.876Z,13.3
2019-02-22T21:24:49.977Z,13.3
2019-02-22T21:26:50.182Z,13.0
2019-02-22T21:28:50.305Z,13.0
2019-02-22T21:30:50.265Z,12.8
2019-02-22T21:32:50.241Z,12.8
2019-02-22T21:34:49.782Z,13.4
2019-02-22T21:36:49.987Z,13.4
2019-02-22T21:38:50.081Z,13.3
2019-02-22T21:40:50.086Z,13.3
2019-02-22T21:42:50.153Z,13.9
2019-02-22T21:44:50.235Z,13.9
2019-02-22T21:46:49.468Z,14.5
2019-02-22T21:48:49.581Z,14.3
2019-02-22T21:50:49.598Z,14.3
2019-02-22T21:52:49.633Z,14.8
2019-02-22T21:54:49.690Z,14.8
2019-02-22T21:56:49.849Z,15.5
2019-02-22T21:58:49.870Z,15.9
2019-02-22T22:00:49.934Z,16.8
2019-02-22T22:02:49.983Z,16.8
2019-02-22T22:04:49.487Z,15.6
2019-02-22T22:06:49.745Z,18.6
2019-02-22T22:08:49.787Z,17.6
2019-02-22T22:10:49.788Z,18.6
2019-02-22T22:12:49.834Z,18.6
2019-02-22T22:14:49.855Z,18.3
2019-02-22T22:16:50.020Z,19.8
2019-02-22T22:18:49.983Z,19.5
2019-02-22T22:20:50.095Z,19.0
2019-02-22T22:22:50.104Z,18.8
2019-02-22T22:24:50.236Z,18.8
2019-02-22T22:26:50.311Z,18.0
2019-02-22T22:28:50.309Z,17.3
2019-02-22T22:30:50.416Z,17.9
2019-02-22T22:32:51.737Z,17.9
2019-02-22T22:34:50.294Z,17.9
2019-02-22T22:36:49.467Z,17.2
2019-02-22T22:38:49.457Z,17.5
2019-02-22T22:40:49.461Z,17.4
2019-02-22T22:42:49.533Z,17.4
2019-02-22T22:44:49.677Z,16.5
2019-02-22T22:46:49.864Z,18.5
2019-02-22T22:48:50.588Z,17.8
2019-02-22T22:50:50.012Z,19.3
2019-02-22T22:52:50.085Z,19.3
2019-02-22T22:54:50.068Z,18.7
2019-02-22T22:56:50.210Z,20.3
2019-02-22T22:58:50.274Z,20.3
2019-02-22T23:00:50.370Z,20.1
2019-02-22T23:02:50.178Z,20.1
2019-02-22T23:04:49.593Z,20.6
2019-02-22T23:06:49.804Z,22.0
2019-02-22T23:08:49.880Z,20.5
2019-02-22T23:10:49.839Z,20.5
2019-02-22T23:12:49.845Z,20.6
2019-02-22T23:14:50.001Z,20.6
2019-02-22T23:16:50.193Z,20.4
2019-02-22T23:19:01.064Z,20.4
2019-02-22T23:20:49.695Z,22.2
2019-02-22T23:22:49.608Z,21.7
2019-02-22T23:24:49.595Z,21.4
2019-02-22T23:26:49.782Z,20.8
2019-02-22T23:28:49.811Z,22.5
2019-02-22T23:30:49.889Z,22.5
2019-02-22T23:32:49.717Z,21.5
2019-02-22T23:34:50.044Z,21.8
2019-02-22T23:36:50.038Z,21.8
2019-02-22T23:38:49.865Z,21.7
2019-02-22T23:40:49.690Z,22.7
2019-02-22T23:42:49.621Z,22.7
2019-02-22T23:44:49.597Z,22.4
2019-02-22T23:46:49.630Z,22.4
2019-02-22T23:48:49.458Z,22.3
2019-02-22T23:50:50.300Z,22.8
2019-02-22T23:52:50.183Z,22.3
2019-02-22T23:54:50.019Z,25.9
2019-02-22T23:56:50.048Z,25.9
2019-02-22T23:58:49.857Z,21.6
